Etusivu
METAR-TAF:

METAR-TAF

Lentoasemat :

Južno-Sahalinskin lentoasema

Južno-Sahalinsk, Venäjä

Leveyspiiri: 46-57N, Pituuspiiri: 142-43E, korkeus merenpinnasta: 31 m

Tämänhetkinen sää

Tämä raportti tehtiin 32 minuuttia sitten, kello 20.00 UTC
Tuuli 2 kn idästä
Lämpötila 13°C
Kosteus 82%
Ilmanpaine 1016 hPa
Näkyvyys 10 km tai enemmän
Hajanaisia pilviä 1900 ft:n korkeudessa

METAR: UHSS 202000Z 09001MPS 9999 SCT019 13/10 Q1016 R01/70D NOSIG RMK MT OBSC QFE761/1015

Aika: 07:32 (20:32 UTC)

Sääennuste

Tämä raportti tehtiin 3 tuntia ja 32 minuuttia sitten, kello 17.00 UTC
Ennuste voimassa 20. päivästä klo 18 UTC - 21. päivään klo 24 UTC
Tuuli 6 kn koillisesta
Näkyvyys 10 km tai enemmän
Hajonneita pilviä 2500 ft:n korkeudessa, Cumulonimbus.
Ajoittain
20. päivästä klo 18 UTC - 20. päivään klo 24 UTC
Hajonneita pilviä 500 ft:n korkeudessa
Hajonneita pilviä 2000 ft:n korkeudessa, Cumulonimbus.

TAF: UHSS 201700Z 2018/2124 05003MPS 9999 BKN025CB TEMPO 2018/2024 BKN005 BKN020CB

Säähavainnot ja -ennusteet yli 4000 lentoasemalta (METAR- ja TAF-raportit).

Käytössä olevat sääasemat on merkitty karttaan keltaisilla ja punaisilla pisteillä.

Aseta hiiri pisteen päälle nähdäksesi sääaseman nimen.

Klikkaa sitten nähdäksesi säähavainnot ja -ennusteet.

Kartan vaihtaminen: klikkaa mustalla rastilla varustettuja vihreitä pisteitä, niin voit zoomata sisään; viivalla varustettua vihreää pistettä, niin voit zoomata ulos tai vihreitä nuolia, niin pääset viereisille kartoille.


METAR-TAF: